Terminal Aerodrome Forecast
Issued by NWS

Home | Current Version | Previous Version | Text Only | Print | Product List | Glossary On
Versions: 1 2 3 4 5 6 7 8 9 10 11 12 13 14 15 16 17
000
FTUS46 KMTR 222300 RRA
TAFMRY
TAF
KMRY 222343Z 2300/2324 28009KT P6SM SKC
     FM230400 21004KT P6SM FEW012
      TEMPO 2304/2308 BKN012
     FM230800 VRB03KT P6SM OVC008
     FM231800 28004KT P6SM SKC
     FM232000 28010KT P6SM FEW250=

USA.gov is the U.S. government's official web portal to all federal, state and local government web resources and services.